sensor_id;sensor_type;location;lat;lon;timestamp;pressure;altitude;pressure_sealevel;temperature;humidity
60479;BME280;46321;48.398;11.754;2023-03-01T00:00:38;97219.22;;;1.42;60.71
60479;BME280;46321;48.398;11.754;2023-03-01T00:03:03;97215.81;;;1.27;60.82
60479;BME280;46321;48.398;11.754;2023-03-01T00:05:28;97211.34;;;1.29;61.07
60479;BME280;46321;48.398;11.754;2023-03-01T00:07:53;97215.34;;;1.34;60.86
60479;BME280;46321;48.398;11.754;2023-03-01T00:10:19;97208.69;;;1.43;60.66
60479;BME280;46321;48.398;11.754;2023-03-01T00:12:44;97208.63;;;1.30;61.02
60479;BME280;46321;48.398;11.754;2023-03-01T00:15:09;97211.16;;;1.32;60.92
60479;BME280;46321;48.398;11.754;2023-03-01T00:17:35;97201.00;;;1.27;61.27
60479;BME280;46321;48.398;11.754;2023-03-01T00:20:00;97204.47;;;1.28;61.22
60479;BME280;46321;48.398;11.754;2023-03-01T00:22:26;97206.13;;;1.29;61.24
60479;BME280;46321;48.398;11.754;2023-03-01T00:24:53;97210.53;;;1.41;60.80
60479;BME280;46321;48.398;11.754;2023-03-01T00:27:18;97202.47;;;1.31;60.81
60479;BME280;46321;48.398;11.754;2023-03-01T00:29:43;97197.53;;;1.13;61.40
60479;BME280;46321;48.398;11.754;2023-03-01T00:32:09;97194.69;;;1.17;61.60
60479;BME280;46321;48.398;11.754;2023-03-01T00:34:34;97190.59;;;1.27;61.22
60479;BME280;46321;48.398;11.754;2023-03-01T00:36:59;97187.69;;;1.32;61.25
60479;BME280;46321;48.398;11.754;2023-03-01T00:39:30;97183.59;;;1.28;61.16
60479;BME280;46321;48.398;11.754;2023-03-01T00:41:55;97192.44;;;1.25;61.39
60479;BME280;46321;48.398;11.754;2023-03-01T00:44:21;97187.47;;;1.35;60.91
60479;BME280;46321;48.398;11.754;2023-03-01T00:46:47;97186.31;;;1.39;60.87
60479;BME280;46321;48.398;11.754;2023-03-01T00:49:13;97181.09;;;1.39;60.75
60479;BME280;46321;48.398;11.754;2023-03-01T00:51:38;97177.63;;;1.25;61.33
60479;BME280;46321;48.398;11.754;2023-03-01T00:54:08;97173.78;;;1.31;61.07
60479;BME280;46321;48.398;11.754;2023-03-01T00:56:33;97173.38;;;1.37;60.84
60479;BME280;46321;48.398;11.754;2023-03-01T00:58:59;97173.34;;;1.24;61.42
60479;BME280;46321;48.398;11.754;2023-03-01T01:01:27;97169.31;;;1.33;61.16
60479;BME280;46321;48.398;11.754;2023-03-01T01:04:05;97169.84;;;1.39;60.83
60479;BME280;46321;48.398;11.754;2023-03-01T01:06:34;97165.16;;;1.44;60.78
60479;BME280;46321;48.398;11.754;2023-03-01T01:09:00;97167.25;;;1.39;60.96
60479;BME280;46321;48.398;11.754;2023-03-01T01:11:28;97157.06;;;1.21;61.51
60479;BME280;46321;48.398;11.754;2023-03-01T01:13:54;97153.47;;;1.09;61.67
60479;BME280;46321;48.398;11.754;2023-03-01T01:16:21;97154.47;;;1.21;61.61
60479;BME280;46321;48.398;11.754;2023-03-01T01:18:47;97151.84;;;1.21;61.23
60479;BME280;46321;48.398;11.754;2023-03-01T01:21:15;97149.84;;;1.11;62.01
60479;BME280;46321;48.398;11.754;2023-03-01T01:23:42;97145.22;;;1.02;62.26
60479;BME280;46321;48.398;11.754;2023-03-01T01:26:10;97145.53;;;1.10;62.13
60479;BME280;46321;48.398;11.754;2023-03-01T01:28:36;97150.69;;;1.12;62.02
60479;BME280;46321;48.398;11.754;2023-03-01T01:31:02;97145.94;;;1.04;62.30
60479;BME280;46321;48.398;11.754;2023-03-01T01:33:27;97139.63;;;1.21;61.95
60479;BME280;46321;48.398;11.754;2023-03-01T01:35:53;97142.53;;;1.17;62.10
60479;BME280;46321;48.398;11.754;2023-03-01T01:38:19;97138.19;;;1.30;61.49
60479;BME280;46321;48.398;11.754;2023-03-01T01:40:48;97139.47;;;1.10;61.95
60479;BME280;46321;48.398;11.754;2023-03-01T01:43:25;97134.97;;;0.99;62.28
60479;BME280;46321;48.398;11.754;2023-03-01T01:45:55;97139.38;;;0.98;62.62
60479;BME280;46321;48.398;11.754;2023-03-01T01:48:22;97138.97;;;1.05;62.37
60479;BME280;46321;48.398;11.754;2023-03-01T01:50:55;97143.16;;;1.07;62.00
60479;BME280;46321;48.398;11.754;2023-03-01T01:53:22;97128.00;;;0.99;62.28
60479;BME280;46321;48.398;11.754;2023-03-01T01:55:52;97138.22;;;1.02;62.24
60479;BME280;46321;48.398;11.754;2023-03-01T01:58:19;97135.03;;;1.12;62.15
60479;BME280;46321;48.398;11.754;2023-03-01T02:00:47;97130.03;;;0.94;62.32
60479;BME280;46321;48.398;11.754;2023-03-01T02:03:17;97130.88;;;0.95;62.27
60479;BME280;46321;48.398;11.754;2023-03-01T02:08:16;97121.69;;;0.89;62.28
60479;BME280;46321;48.398;11.754;2023-03-01T02:10:45;97119.53;;;0.96;62.40
60479;BME280;46321;48.398;11.754;2023-03-01T02:16:32;97122.53;;;0.89;62.24
60479;BME280;46321;48.398;11.754;2023-03-01T02:18:58;97115.16;;;0.96;62.15
60479;BME280;46321;48.398;11.754;2023-03-01T02:21:52;97113.75;;;0.63;62.74
60479;BME280;46321;48.398;11.754;2023-03-01T02:24:32;97106.09;;;0.74;62.26
60479;BME280;46321;48.398;11.754;2023-03-01T02:27:01;97111.38;;;0.87;61.72
60479;BME280;46321;48.398;11.754;2023-03-01T02:29:27;97114.28;;;0.83;61.86
60479;BME280;46321;48.398;11.754;2023-03-01T02:31:54;97110.56;;;0.72;61.84
60479;BME280;46321;48.398;11.754;2023-03-01T02:34:23;97112.72;;;0.80;61.97
60479;BME280;46321;48.398;11.754;2023-03-01T02:37:02;97110.13;;;0.65;61.85
60479;BME280;46321;48.398;11.754;2023-03-01T02:39:46;97115.16;;;0.68;61.99
60479;BME280;46321;48.398;11.754;2023-03-01T02:42:15;97106.16;;;0.45;62.37
60479;BME280;46321;48.398;11.754;2023-03-01T02:44:41;97100.94;;;0.60;61.88
60479;BME280;46321;48.398;11.754;2023-03-01T02:47:07;97098.34;;;0.45;62.26
60479;BME280;46321;48.398;11.754;2023-03-01T02:49:35;97102.16;;;0.54;62.02
60479;BME280;46321;48.398;11.754;2023-03-01T02:52:41;97100.50;;;0.53;61.98
60479;BME280;46321;48.398;11.754;2023-03-01T02:55:16;97100.66;;;0.50;62.06
60479;BME280;46321;48.398;11.754;2023-03-01T02:57:46;97103.03;;;0.40;62.00
60479;BME280;46321;48.398;11.754;2023-03-01T03:00:26;97104.69;;;0.41;61.95
60479;BME280;46321;48.398;11.754;2023-03-01T03:02:53;97102.75;;;0.44;62.13
60479;BME280;46321;48.398;11.754;2023-03-01T03:05:25;97092.06;;;0.34;61.84
60479;BME280;46321;48.398;11.754;2023-03-01T03:07:51;97090.50;;;0.17;62.32
60479;BME280;46321;48.398;11.754;2023-03-01T03:10:23;97090.97;;;0.24;62.09
60479;BME280;46321;48.398;11.754;2023-03-01T03:12:57;97098.97;;;0.06;62.11
60479;BME280;46321;48.398;11.754;2023-03-01T03:15:23;97091.63;;;-0.02;62.24
60479;BME280;46321;48.398;11.754;2023-03-01T03:17:50;97091.06;;;0.08;61.46
60479;BME280;46321;48.398;11.754;2023-03-01T03:20:16;97090.06;;;0.10;61.41
60479;BME280;46321;48.398;11.754;2023-03-01T03:22:45;97086.50;;;-0.18;61.90
60479;BME280;46321;48.398;11.754;2023-03-01T03:25:10;97084.84;;;-0.33;61.82
60479;BME280;46321;48.398;11.754;2023-03-01T03:27:37;97080.00;;;-0.40;62.50
60479;BME280;46321;48.398;11.754;2023-03-01T03:30:08;97087.72;;;-0.24;61.75
60479;BME280;46321;48.398;11.754;2023-03-01T03:32:37;97092.94;;;-0.38;62.29
60479;BME280;46321;48.398;11.754;2023-03-01T03:35:04;97086.16;;;-0.41;62.48
60479;BME280;46321;48.398;11.754;2023-03-01T03:37:39;97092.78;;;-0.66;62.93
60479;BME280;46321;48.398;11.754;2023-03-01T03:40:23;97092.97;;;-0.69;63.19
60479;BME280;46321;48.398;11.754;2023-03-01T03:42:48;97079.69;;;-0.79;63.33
60479;BME280;46321;48.398;11.754;2023-03-01T03:45:15;97085.50;;;-0.90;63.55
60479;BME280;46321;48.398;11.754;2023-03-01T03:47:41;97089.81;;;-0.60;63.13
60479;BME280;46321;48.398;11.754;2023-03-01T03:50:06;97081.69;;;-0.84;63.50
60479;BME280;46321;48.398;11.754;2023-03-01T03:52:32;97081.91;;;-0.73;63.54
60479;BME280;46321;48.398;11.754;2023-03-01T03:54:57;97069.50;;;-0.67;63.18
60479;BME280;46321;48.398;11.754;2023-03-01T03:57:22;97074.38;;;-0.77;63.55
60479;BME280;46321;48.398;11.754;2023-03-01T03:59:48;97068.84;;;-0.87;63.71
60479;BME280;46321;48.398;11.754;2023-03-01T04:02:13;97058.94;;;-0.81;63.71
60479;BME280;46321;48.398;11.754;2023-03-01T04:04:46;97058.41;;;-0.71;63.32
60479;BME280;46321;48.398;11.754;2023-03-01T04:07:13;97058.94;;;-0.81;63.51
60479;BME280;46321;48.398;11.754;2023-03-01T04:09:38;97066.97;;;-1.00;64.30
60479;BME280;46321;48.398;11.754;2023-03-01T04:12:04;97059.78;;;-0.80;63.73
60479;BME280;46321;48.398;11.754;2023-03-01T04:14:29;97064.78;;;-0.92;63.83
60479;BME280;46321;48.398;11.754;2023-03-01T04:16:54;97058.91;;;-1.10;64.49
60479;BME280;46321;48.398;11.754;2023-03-01T04:19:19;97060.81;;;-1.13;64.95
60479;BME280;46321;48.398;11.754;2023-03-01T04:21:45;97060.91;;;-1.15;65.17
60479;BME280;46321;48.398;11.754;2023-03-01T04:24:10;97056.19;;;-1.08;64.90
60479;BME280;46321;48.398;11.754;2023-03-01T04:26:36;97065.00;;;-1.11;64.90
60479;BME280;46321;48.398;11.754;2023-03-01T04:29:01;97064.09;;;-1.10;64.53
60479;BME280;46321;48.398;11.754;2023-03-01T04:31:26;97062.66;;;-1.16;64.90
60479;BME280;46321;48.398;11.754;2023-03-01T04:33:54;97062.91;;;-1.20;64.77
60479;BME280;46321;48.398;11.754;2023-03-01T04:36:22;97059.06;;;-1.13;64.66
60479;BME280;46321;48.398;11.754;2023-03-01T04:38:48;97058.59;;;-1.05;64.62
60479;BME280;46321;48.398;11.754;2023-03-01T04:41:18;97053.63;;;-1.24;65.00
60479;BME280;46321;48.398;11.754;2023-03-01T04:43:44;97058.56;;;-1.20;64.89
60479;BME280;46321;48.398;11.754;2023-03-01T04:46:14;97057.09;;;-1.40;65.78
60479;BME280;46321;48.398;11.754;2023-03-01T04:48:41;97050.88;;;-1.21;65.24
60479;BME280;46321;48.398;11.754;2023-03-01T04:51:08;97056.75;;;-1.50;65.70
60479;BME280;46321;48.398;11.754;2023-03-01T04:53:34;97052.22;;;-1.30;65.52
60479;BME280;46321;48.398;11.754;2023-03-01T04:56:01;97059.84;;;-1.27;65.17
60479;BME280;46321;48.398;11.754;2023-03-01T04:58:27;97052.91;;;-1.43;65.53
60479;BME280;46321;48.398;11.754;2023-03-01T05:00:54;97045.19;;;-1.44;65.86
60479;BME280;46321;48.398;11.754;2023-03-01T05:03:20;97040.75;;;-1.26;64.95
60479;BME280;46321;48.398;11.754;2023-03-01T05:05:47;97033.63;;;-1.39;65.51
60479;BME280;46321;48.398;11.754;2023-03-01T05:08:14;97043.09;;;-1.38;65.64
60479;BME280;46321;48.398;11.754;2023-03-01T05:10:52;97036.81;;;-1.50;66.25
60479;BME280;46321;48.398;11.754;2023-03-01T05:13:19;97023.47;;;-1.43;65.65
60479;BME280;46321;48.398;11.754;2023-03-01T05:15:56;97038.16;;;-1.42;65.95
60479;BME280;46321;48.398;11.754;2023-03-01T05:18:22;97044.31;;;-1.59;66.57
60479;BME280;46321;48.398;11.754;2023-03-01T05:20:54;97041.63;;;-1.58;66.71
60479;BME280;46321;48.398;11.754;2023-03-01T05:23:21;97041.97;;;-1.64;66.62
60479;BME280;46321;48.398;11.754;2023-03-01T05:25:47;97039.78;;;-1.56;66.42
60479;BME280;46321;48.398;11.754;2023-03-01T05:28:12;97036.41;;;-1.58;66.32
60479;BME280;46321;48.398;11.754;2023-03-01T05:30:38;97035.66;;;-1.60;66.48
60479;BME280;46321;48.398;11.754;2023-03-01T05:33:04;97032.81;;;-1.55;65.88
60479;BME280;46321;48.398;11.754;2023-03-01T05:35:32;97040.78;;;-1.75;66.55
60479;BME280;46321;48.398;11.754;2023-03-01T05:37:57;97039.22;;;-1.77;66.80
60479;BME280;46321;48.398;11.754;2023-03-01T05:40:23;97038.44;;;-1.63;66.47
60479;BME280;46321;48.398;11.754;2023-03-01T05:42:56;97044.41;;;-1.77;66.95
60479;BME280;46321;48.398;11.754;2023-03-01T05:45:23;97046.25;;;-1.79;66.97
60479;BME280;46321;48.398;11.754;2023-03-01T05:47:49;97036.63;;;-1.77;67.20
60479;BME280;46321;48.398;11.754;2023-03-01T05:50:23;97037.78;;;-1.83;66.80
60479;BME280;46321;48.398;11.754;2023-03-01T05:52:57;97041.19;;;-1.99;67.95
60479;BME280;46321;48.398;11.754;2023-03-01T05:55:23;97038.47;;;-1.79;67.25
60479;BME280;46321;48.398;11.754;2023-03-01T05:57:48;97042.41;;;-1.88;67.14
60479;BME280;46321;48.398;11.754;2023-03-01T06:00:16;97041.47;;;-1.71;66.83
60479;BME280;46321;48.398;11.754;2023-03-01T06:02:42;97040.13;;;-1.78;67.00
60479;BME280;46321;48.398;11.754;2023-03-01T06:05:09;97040.47;;;-1.85;67.05
60479;BME280;46321;48.398;11.754;2023-03-01T06:07:34;97036.25;;;-1.87;66.89
60479;BME280;46321;48.398;11.754;2023-03-01T06:10:00;97044.63;;;-1.66;66.62
60479;BME280;46321;48.398;11.754;2023-03-01T06:12:25;97045.41;;;-1.64;66.39
60479;BME280;46321;48.398;11.754;2023-03-01T06:14:51;97047.91;;;-1.62;66.13
60479;BME280;46321;48.398;11.754;2023-03-01T06:17:16;97047.41;;;-1.53;66.29
60479;BME280;46321;48.398;11.754;2023-03-01T06:19:41;97051.16;;;-1.58;66.33
60479;BME280;46321;48.398;11.754;2023-03-01T06:22:07;97053.41;;;-1.52;66.13
60479;BME280;46321;48.398;11.754;2023-03-01T06:24:33;97052.91;;;-1.43;65.99
60479;BME280;46321;48.398;11.754;2023-03-01T06:26:58;97056.59;;;-1.31;65.74
60479;BME280;46321;48.398;11.754;2023-03-01T06:29:24;97055.25;;;-1.38;65.74
60479;BME280;46321;48.398;11.754;2023-03-01T06:31:49;97056.69;;;-1.32;65.92
60479;BME280;46321;48.398;11.754;2023-03-01T06:34:14;97056.13;;;-1.23;65.51
60479;BME280;46321;48.398;11.754;2023-03-01T06:36:40;97050.50;;;-1.15;65.13
60479;BME280;46321;48.398;11.754;2023-03-01T06:39:06;97056.50;;;-0.98;65.09
60479;BME280;46321;48.398;11.754;2023-03-01T06:41:32;97061.06;;;-0.87;64.45
60479;BME280;46321;48.398;11.754;2023-03-01T06:43:57;97061.63;;;-0.82;64.18
60479;BME280;46321;48.398;11.754;2023-03-01T06:46:24;97059.50;;;-0.90;64.30
60479;BME280;46321;48.398;11.754;2023-03-01T06:48:49;97066.78;;;-0.66;63.88
60479;BME280;46321;48.398;11.754;2023-03-01T06:51:14;97057.59;;;-0.42;63.51
60479;BME280;46321;48.398;11.754;2023-03-01T06:53:40;97051.56;;;-0.28;62.73
60479;BME280;46321;48.398;11.754;2023-03-01T06:56:05;97053.88;;;-0.09;62.57
60479;BME280;46321;48.398;11.754;2023-03-01T06:58:30;97064.00;;;0.10;61.60
60479;BME280;46321;48.398;11.754;2023-03-01T07:00:56;97052.75;;;0.10;61.54
60479;BME280;46321;48.398;11.754;2023-03-01T07:03:21;97055.72;;;0.18;61.45
60479;BME280;46321;48.398;11.754;2023-03-01T07:05:50;97049.31;;;0.52;60.66
60479;BME280;46321;48.398;11.754;2023-03-01T07:08:17;97048.44;;;0.66;60.09
60479;BME280;46321;48.398;11.754;2023-03-01T07:10:43;97039.50;;;0.83;59.48
60479;BME280;46321;48.398;11.754;2023-03-01T07:13:08;97049.13;;;0.83;59.60
60479;BME280;46321;48.398;11.754;2023-03-01T07:15:33;97045.09;;;1.18;59.02
60479;BME280;46321;48.398;11.754;2023-03-01T07:17:58;97031.75;;;1.62;58.25
60479;BME280;46321;48.398;11.754;2023-03-01T07:20:24;97027.56;;;1.85;56.79
60479;BME280;46321;48.398;11.754;2023-03-01T07:22:54;97033.78;;;2.09;56.19
60479;BME280;46321;48.398;11.754;2023-03-01T07:25:19;97022.09;;;2.39;55.27
60479;BME280;46321;48.398;11.754;2023-03-01T07:27:49;97027.41;;;2.50;54.64
60479;BME280;46321;48.398;11.754;2023-03-01T07:30:15;97015.47;;;2.95;54.21
60479;BME280;46321;48.398;11.754;2023-03-01T07:32:41;97027.06;;;3.16;53.19
60479;BME280;46321;48.398;11.754;2023-03-01T07:35:06;97017.56;;;3.26;51.93
60479;BME280;46321;48.398;11.754;2023-03-01T07:37:31;97021.63;;;3.76;51.60
60479;BME280;46321;48.398;11.754;2023-03-01T07:39:57;97016.53;;;3.86;50.44
60479;BME280;46321;48.398;11.754;2023-03-01T07:42:22;97020.34;;;4.05;50.47
60479;BME280;46321;48.398;11.754;2023-03-01T07:44:48;97017.41;;;4.31;49.13
60479;BME280;46321;48.398;11.754;2023-03-01T07:47:13;97013.63;;;4.12;47.65
60479;BME280;46321;48.398;11.754;2023-03-01T07:49:38;97008.88;;;3.95;49.67
60479;BME280;46321;48.398;11.754;2023-03-01T07:52:04;97002.63;;;4.42;48.40
60479;BME280;46321;48.398;11.754;2023-03-01T07:54:29;97008.38;;;4.24;47.41
60479;BME280;46321;48.398;11.754;2023-03-01T07:56:56;97010.78;;;3.93;48.24
60479;BME280;46321;48.398;11.754;2023-03-01T07:59:21;97015.19;;;4.15;47.75
60479;BME280;46321;48.398;11.754;2023-03-01T08:01:48;97014.66;;;4.44;47.31
60479;BME280;46321;48.398;11.754;2023-03-01T08:04:13;97011.34;;;4.31;46.69
60479;BME280;46321;48.398;11.754;2023-03-01T08:06:39;97003.75;;;4.61;46.06
60479;BME280;46321;48.398;11.754;2023-03-01T08:09:04;97003.91;;;4.80;45.92
60479;BME280;46321;48.398;11.754;2023-03-01T08:11:29;97004.94;;;5.11;44.85
60479;BME280;46321;48.398;11.754;2023-03-01T08:13:55;96998.28;;;5.49;44.46
60479;BME280;46321;48.398;11.754;2023-03-01T08:16:21;96988.56;;;5.71;43.44
60479;BME280;46321;48.398;11.754;2023-03-01T08:18:46;96994.25;;;5.77;43.88
60479;BME280;46321;48.398;11.754;2023-03-01T08:21:15;96987.50;;;5.84;43.31
60479;BME280;46321;48.398;11.754;2023-03-01T08:23:40;96990.53;;;6.11;42.56
60479;BME280;46321;48.398;11.754;2023-03-01T08:26:17;96996.41;;;6.03;43.08
60479;BME280;46321;48.398;11.754;2023-03-01T08:28:43;96998.44;;;5.89;42.37
60479;BME280;46321;48.398;11.754;2023-03-01T08:31:20;96984.09;;;5.31;43.34
60479;BME280;46321;48.398;11.754;2023-03-01T08:33:47;96991.19;;;5.71;43.25
60479;BME280;46321;48.398;11.754;2023-03-01T08:36:20;96981.28;;;6.36;43.20
60479;BME280;46321;48.398;11.754;2023-03-01T08:38:46;96980.63;;;6.84;41.37
60479;BME280;46321;48.398;11.754;2023-03-01T08:41:11;96983.47;;;7.30;39.89
60479;BME280;46321;48.398;11.754;2023-03-01T08:43:37;96983.53;;;6.51;41.23
60479;BME280;46321;48.398;11.754;2023-03-01T08:46:02;96978.41;;;6.79;40.33
60479;BME280;46321;48.398;11.754;2023-03-01T08:48:28;96982.28;;;6.95;40.06
60479;BME280;46321;48.398;11.754;2023-03-01T08:50:54;96977.44;;;6.80;39.53
60479;BME280;46321;48.398;11.754;2023-03-01T08:53:19;96984.78;;;6.47;40.63
60479;BME280;46321;48.398;11.754;2023-03-01T08:55:44;96969.38;;;6.22;40.96
60479;BME280;46321;48.398;11.754;2023-03-01T08:58:09;96977.91;;;7.33;39.73
60479;BME280;46321;48.398;11.754;2023-03-01T09:00:35;96971.81;;;7.43;39.47
60479;BME280;46321;48.398;11.754;2023-03-01T09:03:01;96971.91;;;7.51;39.23
60479;BME280;46321;48.398;11.754;2023-03-01T09:05:26;96967.47;;;7.52;39.17
60479;BME280;46321;48.398;11.754;2023-03-01T09:07:51;96971.53;;;8.31;38.03
60479;BME280;46321;48.398;11.754;2023-03-01T09:10:17;96966.72;;;7.70;38.74
60479;BME280;46321;48.398;11.754;2023-03-01T09:12:42;96969.09;;;7.63;37.76
60479;BME280;46321;48.398;11.754;2023-03-01T09:15:08;96954.38;;;7.70;38.66
60479;BME280;46321;48.398;11.754;2023-03-01T09:17:33;96961.94;;;8.30;37.60
60479;BME280;46321;48.398;11.754;2023-03-01T09:19:59;96945.38;;;8.92;36.93
60479;BME280;46321;48.398;11.754;2023-03-01T09:22:25;96949.22;;;9.52;35.64
60479;BME280;46321;48.398;11.754;2023-03-01T09:24:50;96956.72;;;9.65;35.76
60479;BME280;46321;48.398;11.754;2023-03-01T09:27:15;96951.56;;;9.98;35.93
60479;BME280;46321;48.398;11.754;2023-03-01T09:29:43;96956.06;;;10.99;34.19
60479;BME280;46321;48.398;11.754;2023-03-01T09:32:09;96966.66;;;10.14;33.96
60479;BME280;46321;48.398;11.754;2023-03-01T09:34:34;96954.41;;;9.35;34.91
60479;BME280;46321;48.398;11.754;2023-03-01T09:37:19;96950.91;;;10.04;34.36
60479;BME280;46321;48.398;11.754;2023-03-01T09:39:44;96963.63;;;9.92;34.26
60479;BME280;46321;48.398;11.754;2023-03-01T09:42:12;96956.00;;;9.89;34.33
60479;BME280;46321;48.398;11.754;2023-03-01T09:44:40;96946.44;;;10.65;33.94
60479;BME280;46321;48.398;11.754;2023-03-01T09:47:15;96940.31;;;10.98;33.22
60479;BME280;46321;48.398;11.754;2023-03-01T09:49:42;96938.06;;;9.66;33.84
60479;BME280;46321;48.398;11.754;2023-03-01T09:52:23;96928.41;;;10.77;33.15
60479;BME280;46321;48.398;11.754;2023-03-01T09:54:54;96922.13;;;10.70;33.47
60479;BME280;46321;48.398;11.754;2023-03-01T09:57:53;96927.59;;;10.76;33.01
60479;BME280;46321;48.398;11.754;2023-03-01T10:00:22;96925.84;;;11.42;32.39
60479;BME280;46321;48.398;11.754;2023-03-01T10:02:57;96922.59;;;12.12;31.62
60479;BME280;46321;48.398;11.754;2023-03-01T10:11:11;96905.63;;;12.92;30.38
60479;BME280;46321;48.398;11.754;2023-03-01T10:13:46;96917.13;;;12.85;30.03
60479;BME280;46321;48.398;11.754;2023-03-01T10:16:48;96905.97;;;12.89;29.49
60479;BME280;46321;48.398;11.754;2023-03-01T10:19:26;96907.03;;;13.34;29.67
60479;BME280;46321;48.398;11.754;2023-03-01T10:21:57;96896.72;;;12.85;29.93
60479;BME280;46321;48.398;11.754;2023-03-01T10:24:26;96906.84;;;13.20;29.14
60479;BME280;46321;48.398;11.754;2023-03-01T10:26:56;96893.53;;;13.05;30.14
60479;BME280;46321;48.398;11.754;2023-03-01T10:29:27;96888.50;;;13.25;29.31
60479;BME280;46321;48.398;11.754;2023-03-01T10:31:56;96900.44;;;13.75;29.19
60479;BME280;46321;48.398;11.754;2023-03-01T10:34:28;96883.06;;;15.04;28.06
60479;BME280;46321;48.398;11.754;2023-03-01T10:36:57;96888.19;;;15.06;26.73
60479;BME280;46321;48.398;11.754;2023-03-01T10:39:25;96878.03;;;15.16;27.09
60479;BME280;46321;48.398;11.754;2023-03-01T10:41:58;96864.81;;;15.79;26.62
60479;BME280;46321;48.398;11.754;2023-03-01T10:44:43;96867.25;;;14.74;26.83
60479;BME280;46321;48.398;11.754;2023-03-01T10:47:15;96872.06;;;14.85;26.88
60479;BME280;46321;48.398;11.754;2023-03-01T10:52:20;96854.31;;;15.77;26.92
60479;BME280;46321;48.398;11.754;2023-03-01T10:54:55;96859.53;;;14.57;27.58
60479;BME280;46321;48.398;11.754;2023-03-01T11:00:24;96848.38;;;14.97;26.70
60479;BME280;46321;48.398;11.754;2023-03-01T11:03:02;96838.41;;;15.49;26.27
60479;BME280;46321;48.398;11.754;2023-03-01T11:05:28;96826.94;;;16.92;25.45
60479;BME280;46321;48.398;11.754;2023-03-01T11:08:00;96828.00;;;16.37;25.73
60479;BME280;46321;48.398;11.754;2023-03-01T11:13:06;96825.53;;;16.49;26.08
60479;BME280;46321;48.398;11.754;2023-03-01T11:15:32;96820.56;;;16.12;25.96
60479;BME280;46321;48.398;11.754;2023-03-01T11:17:57;96814.53;;;15.89;26.00
60479;BME280;46321;48.398;11.754;2023-03-01T11:20:30;96815.66;;;15.60;26.29
60479;BME280;46321;48.398;11.754;2023-03-01T11:23:11;96802.47;;;17.02;25.45
60479;BME280;46321;48.398;11.754;2023-03-01T11:25:40;96811.88;;;15.89;25.52
60479;BME280;46321;48.398;11.754;2023-03-01T11:28:12;96807.47;;;14.33;27.86
60479;BME280;46321;48.398;11.754;2023-03-01T11:30:55;96799.06;;;15.15;27.67
60479;BME280;46321;48.398;11.754;2023-03-01T11:36:11;96797.88;;;14.60;28.29
60479;BME280;46321;48.398;11.754;2023-03-01T11:38:39;96785.91;;;14.78;28.64
60479;BME280;46321;48.398;11.754;2023-03-01T11:41:17;96783.63;;;15.53;26.87
60479;BME280;46321;48.398;11.754;2023-03-01T11:43:59;96773.13;;;16.28;25.94
60479;BME280;46321;48.398;11.754;2023-03-01T11:52:06;96759.13;;;12.80;31.12
60479;BME280;46321;48.398;11.754;2023-03-01T11:54:44;96757.69;;;11.13;33.33
60479;BME280;46321;48.398;11.754;2023-03-01T12:00:17;96764.28;;;10.60;34.71
60479;BME280;46321;48.398;11.754;2023-03-01T12:08:35;96750.63;;;8.78;38.41
60479;BME280;46321;48.398;11.754;2023-03-01T12:13:52;96735.25;;;9.16;38.21
60479;BME280;46321;48.398;11.754;2023-03-01T12:16:45;96740.59;;;8.10;40.34
60479;BME280;46321;48.398;11.754;2023-03-01T12:22:31;96747.56;;;8.38;40.33
60479;BME280;46321;48.398;11.754;2023-03-01T12:25:28;96731.94;;;8.44;40.06
60479;BME280;46321;48.398;11.754;2023-03-01T12:37:03;96726.53;;;7.28;43.40
60479;BME280;46321;48.398;11.754;2023-03-01T12:42:36;96712.06;;;7.68;43.15
60479;BME280;46321;48.398;11.754;2023-03-01T12:50:40;96695.63;;;7.30;43.73
60479;BME280;46321;48.398;11.754;2023-03-01T12:53:18;96704.25;;;7.22;44.02
60479;BME280;46321;48.398;11.754;2023-03-01T12:55:45;96700.72;;;7.50;43.80
60479;BME280;46321;48.398;11.754;2023-03-01T12:58:24;96704.31;;;7.85;43.27
60479;BME280;46321;48.398;11.754;2023-03-01T13:01:14;96728.81;;;7.13;44.02
60479;BME280;46321;48.398;11.754;2023-03-01T13:09:28;96702.09;;;6.89;45.24
60479;BME280;46321;48.398;11.754;2023-03-01T13:11:55;96697.25;;;6.84;45.77
60479;BME280;46321;48.398;11.754;2023-03-01T13:16:53;96708.44;;;7.15;45.75
60479;BME280;46321;48.398;11.754;2023-03-01T13:19:21;96715.56;;;7.32;45.24
60479;BME280;46321;48.398;11.754;2023-03-01T13:21:48;96713.41;;;7.18;45.60
60479;BME280;46321;48.398;11.754;2023-03-01T13:29:52;96706.22;;;7.56;45.24
60479;BME280;46321;48.398;11.754;2023-03-01T13:32:22;96702.22;;;7.34;45.67
60479;BME280;46321;48.398;11.754;2023-03-01T13:34:50;96698.75;;;7.33;45.70
60479;BME280;46321;48.398;11.754;2023-03-01T13:37:27;96703.88;;;7.35;45.15
60479;BME280;46321;48.398;11.754;2023-03-01T13:39:56;96701.25;;;6.89;46.59
60479;BME280;46321;48.398;11.754;2023-03-01T13:42:33;96700.25;;;7.18;45.91
60479;BME280;46321;48.398;11.754;2023-03-01T13:45:00;96696.25;;;7.14;46.27
60479;BME280;46321;48.398;11.754;2023-03-01T13:47:26;96676.09;;;7.04;46.20
60479;BME280;46321;48.398;11.754;2023-03-01T13:50:00;96680.03;;;7.37;46.18
60479;BME280;46321;48.398;11.754;2023-03-01T13:52:37;96679.44;;;7.43;46.36
60479;BME280;46321;48.398;11.754;2023-03-01T14:00:41;96685.03;;;6.93;47.44
60479;BME280;46321;48.398;11.754;2023-03-01T14:03:18;96666.50;;;7.31;47.57
60479;BME280;46321;48.398;11.754;2023-03-01T14:06:18;96683.31;;;7.02;47.18
60479;BME280;46321;48.398;11.754;2023-03-01T14:08:45;96664.16;;;7.10;47.71
60479;BME280;46321;48.398;11.754;2023-03-01T14:11:25;96670.47;;;7.17;47.39
60479;BME280;46321;48.398;11.754;2023-03-01T14:19:25;96663.69;;;7.15;48.03
60479;BME280;46321;48.398;11.754;2023-03-01T14:22:07;96662.34;;;7.29;48.03
60479;BME280;46321;48.398;11.754;2023-03-01T14:24:47;96659.88;;;7.27;48.06
60479;BME280;46321;48.398;11.754;2023-03-01T14:27:14;96647.53;;;7.09;48.42
60479;BME280;46321;48.398;11.754;2023-03-01T14:29:40;96641.66;;;7.34;48.14